sensor_id;sensor_type;location;lat;lon;timestamp;pressure;altitude;pressure_sealevel;temperature;humidity
51229;BME280;37304;52.216;6.874;2023-05-10T00:02:01;100482.75;;;13.11;100.00
51229;BME280;37304;52.216;6.874;2023-05-10T00:07:02;100487.38;;;13.03;100.00
51229;BME280;37304;52.216;6.874;2023-05-10T00:12:02;100487.50;;;12.99;100.00
51229;BME280;37304;52.216;6.874;2023-05-10T00:17:03;100481.81;;;12.86;100.00
51229;BME280;37304;52.216;6.874;2023-05-10T00:22:03;100482.19;;;12.75;100.00
51229;BME280;37304;52.216;6.874;2023-05-10T00:27:03;100489.13;;;12.74;100.00
51229;BME280;37304;52.216;6.874;2023-05-10T00:32:04;100483.28;;;12.67;100.00
51229;BME280;37304;52.216;6.874;2023-05-10T00:37:04;100480.72;;;12.66;100.00
51229;BME280;37304;52.216;6.874;2023-05-10T00:42:05;100486.03;;;12.63;100.00
51229;BME280;37304;52.216;6.874;2023-05-10T00:47:05;100478.00;;;12.69;100.00
51229;BME280;37304;52.216;6.874;2023-05-10T00:52:06;100482.00;;;12.52;100.00
51229;BME280;37304;52.216;6.874;2023-05-10T00:57:06;100482.81;;;12.55;100.00
51229;BME280;37304;52.216;6.874;2023-05-10T01:02:07;100482.69;;;12.58;100.00
51229;BME280;37304;52.216;6.874;2023-05-10T01:07:07;100482.09;;;12.49;100.00
51229;BME280;37304;52.216;6.874;2023-05-10T01:12:07;100488.19;;;12.48;100.00
51229;BME280;37304;52.216;6.874;2023-05-10T01:17:09;100491.81;;;12.44;100.00
51229;BME280;37304;52.216;6.874;2023-05-10T01:27:47;100485.06;;;12.37;100.00
51229;BME280;37304;52.216;6.874;2023-05-10T01:33:10;100474.47;;;12.43;100.00
51229;BME280;37304;52.216;6.874;2023-05-10T01:43:22;100488.56;;;12.36;100.00
51229;BME280;37304;52.216;6.874;2023-05-10T01:48:25;100497.22;;;12.36;100.00
51229;BME280;37304;52.216;6.874;2023-05-10T01:53:28;100491.28;;;12.33;100.00
51229;BME280;37304;52.216;6.874;2023-05-10T01:58:31;100485.16;;;12.34;100.00
51229;BME280;37304;52.216;6.874;2023-05-10T02:03:34;100486.97;;;12.32;100.00
51229;BME280;37304;52.216;6.874;2023-05-10T02:08:36;100490.56;;;12.28;100.00
51229;BME280;37304;52.216;6.874;2023-05-10T02:13:37;100488.78;;;12.28;100.00
51229;BME280;37304;52.216;6.874;2023-05-10T02:18:40;100497.53;;;12.26;100.00
51229;BME280;37304;52.216;6.874;2023-05-10T02:23:42;100498.50;;;12.23;100.00
51229;BME280;37304;52.216;6.874;2023-05-10T02:28:43;100504.53;;;12.23;100.00
51229;BME280;37304;52.216;6.874;2023-05-10T02:33:44;100504.50;;;12.27;100.00
51229;BME280;37304;52.216;6.874;2023-05-10T02:38:47;100505.31;;;12.27;100.00
51229;BME280;37304;52.216;6.874;2023-05-10T02:43:51;100508.91;;;12.23;100.00
51229;BME280;37304;52.216;6.874;2023-05-10T02:48:55;100510.72;;;12.21;100.00
51229;BME280;37304;52.216;6.874;2023-05-10T02:53:56;100508.91;;;12.23;100.00
51229;BME280;37304;52.216;6.874;2023-05-10T02:58:57;100508.06;;;12.22;100.00
51229;BME280;37304;52.216;6.874;2023-05-10T03:03:57;100506.44;;;12.18;100.00
51229;BME280;37304;52.216;6.874;2023-05-10T03:08:58;100507.41;;;12.14;100.00
51229;BME280;37304;52.216;6.874;2023-05-10T03:14:05;100503.16;;;12.12;100.00
51229;BME280;37304;52.216;6.874;2023-05-10T03:19:16;100502.94;;;12.19;100.00
51229;BME280;37304;52.216;6.874;2023-05-10T03:24:20;100511.53;;;12.23;100.00
51229;BME280;37304;52.216;6.874;2023-05-10T03:29:22;100515.06;;;12.20;100.00
51229;BME280;37304;52.216;6.874;2023-05-10T03:34:24;100521.75;;;12.31;100.00
51229;BME280;37304;52.216;6.874;2023-05-10T03:39:24;100522.97;;;12.17;100.00
51229;BME280;37304;52.216;6.874;2023-05-10T03:44:25;100528.16;;;12.19;100.00
51229;BME280;37304;52.216;6.874;2023-05-10T03:49:25;100525.44;;;12.22;100.00
51229;BME280;37304;52.216;6.874;2023-05-10T03:54:25;100531.28;;;12.30;100.00
51229;BME280;37304;52.216;6.874;2023-05-10T03:59:26;100532.19;;;12.29;100.00
51229;BME280;37304;52.216;6.874;2023-05-10T04:04:26;100533.78;;;12.35;100.00
51229;BME280;37304;52.216;6.874;2023-05-10T04:09:27;100545.03;;;12.35;100.00
51229;BME280;37304;52.216;6.874;2023-05-10T04:14:27;100549.63;;;12.27;100.00
51229;BME280;37304;52.216;6.874;2023-05-10T04:19:31;100545.94;;;12.34;100.00
51229;BME280;37304;52.216;6.874;2023-05-10T04:24:31;100552.91;;;12.34;100.00
51229;BME280;37304;52.216;6.874;2023-05-10T04:29:32;100551.38;;;12.27;100.00
51229;BME280;37304;52.216;6.874;2023-05-10T04:34:32;100549.41;;;12.35;100.00
51229;BME280;37304;52.216;6.874;2023-05-10T04:39:34;100551.03;;;12.39;100.00
51229;BME280;37304;52.216;6.874;2023-05-10T04:44:35;100548.50;;;12.36;100.00
51229;BME280;37304;52.216;6.874;2023-05-10T04:49:36;100557.00;;;12.43;100.00
51229;BME280;37304;52.216;6.874;2023-05-10T04:54:36;100561.38;;;12.41;100.00
51229;BME280;37304;52.216;6.874;2023-05-10T04:59:37;100563.00;;;12.45;100.00
51229;BME280;37304;52.216;6.874;2023-05-10T05:04:37;100565.44;;;12.51;100.00
51229;BME280;37304;52.216;6.874;2023-05-10T05:09:38;100568.91;;;12.51;100.00
51229;BME280;37304;52.216;6.874;2023-05-10T05:14:38;100575.78;;;12.54;100.00
51229;BME280;37304;52.216;6.874;2023-05-10T05:19:38;100579.13;;;12.59;100.00
51229;BME280;37304;52.216;6.874;2023-05-10T05:24:39;100580.56;;;12.70;100.00
51229;BME280;37304;52.216;6.874;2023-05-10T05:29:39;100585.69;;;12.73;100.00
51229;BME280;37304;52.216;6.874;2023-05-10T05:34:39;100589.00;;;12.78;100.00
51229;BME280;37304;52.216;6.874;2023-05-10T05:39:40;100587.00;;;12.86;100.00
51229;BME280;37304;52.216;6.874;2023-05-10T05:44:40;100592.06;;;12.91;100.00
51229;BME280;37304;52.216;6.874;2023-05-10T05:49:40;100592.63;;;13.02;100.00
51229;BME280;37304;52.216;6.874;2023-05-10T05:54:41;100586.69;;;12.97;100.00
51229;BME280;37304;52.216;6.874;2023-05-10T05:59:41;100595.50;;;12.93;100.00
51229;BME280;37304;52.216;6.874;2023-05-10T06:04:43;100607.69;;;12.92;100.00
51229;BME280;37304;52.216;6.874;2023-05-10T06:09:44;100609.41;;;12.93;100.00
51229;BME280;37304;52.216;6.874;2023-05-10T06:14:44;100592.72;;;12.99;100.00
51229;BME280;37304;52.216;6.874;2023-05-10T06:19:44;100598.84;;;12.98;100.00
51229;BME280;37304;52.216;6.874;2023-05-10T06:24:45;100614.50;;;12.96;100.00
51229;BME280;37304;52.216;6.874;2023-05-10T06:29:45;100619.84;;;12.92;100.00
51229;BME280;37304;52.216;6.874;2023-05-10T06:34:46;100622.56;;;12.89;100.00
51229;BME280;37304;52.216;6.874;2023-05-10T06:39:46;100630.25;;;12.93;100.00
51229;BME280;37304;52.216;6.874;2023-05-10T06:44:46;100631.88;;;12.98;100.00
51229;BME280;37304;52.216;6.874;2023-05-10T06:49:47;100624.91;;;12.98;100.00
51229;BME280;37304;52.216;6.874;2023-05-10T06:54:47;100634.44;;;12.99;100.00
51229;BME280;37304;52.216;6.874;2023-05-10T06:59:47;100642.03;;;13.07;100.00
51229;BME280;37304;52.216;6.874;2023-05-10T07:04:48;100654.56;;;13.24;100.00
51229;BME280;37304;52.216;6.874;2023-05-10T07:09:49;100646.97;;;13.45;100.00
51229;BME280;37304;52.216;6.874;2023-05-10T07:14:50;100644.09;;;13.81;100.00
51229;BME280;37304;52.216;6.874;2023-05-10T07:19:50;100643.63;;;13.95;100.00
51229;BME280;37304;52.216;6.874;2023-05-10T07:24:50;100645.06;;;14.04;100.00
51229;BME280;37304;52.216;6.874;2023-05-10T07:29:51;100650.88;;;14.12;100.00
51229;BME280;37304;52.216;6.874;2023-05-10T07:34:51;100650.75;;;14.15;100.00
51229;BME280;37304;52.216;6.874;2023-05-10T07:39:53;100659.59;;;14.12;100.00
51229;BME280;37304;52.216;6.874;2023-05-10T07:44:53;100652.78;;;14.07;100.00
51229;BME280;37304;52.216;6.874;2023-05-10T07:49:53;100658.22;;;14.27;100.00
51229;BME280;37304;52.216;6.874;2023-05-10T07:54:54;100664.69;;;14.41;100.00
51229;BME280;37304;52.216;6.874;2023-05-10T07:59:54;100673.34;;;14.43;100.00
51229;BME280;37304;52.216;6.874;2023-05-10T08:04:55;100677.69;;;14.42;100.00
51229;BME280;37304;52.216;6.874;2023-05-10T08:09:55;100682.81;;;14.71;100.00
51229;BME280;37304;52.216;6.874;2023-05-10T08:14:56;100692.38;;;14.72;100.00
51229;BME280;37304;52.216;6.874;2023-05-10T08:19:57;100693.75;;;14.57;100.00
51229;BME280;37304;52.216;6.874;2023-05-10T08:24:57;100695.63;;;14.53;100.00
51229;BME280;37304;52.216;6.874;2023-05-10T08:29:57;100695.50;;;14.33;100.00
51229;BME280;37304;52.216;6.874;2023-05-10T08:34:58;100695.84;;;14.47;100.00
51229;BME280;37304;52.216;6.874;2023-05-10T08:39:58;100697.94;;;14.37;100.00
51229;BME280;37304;52.216;6.874;2023-05-10T08:44:59;100702.72;;;14.50;100.00
51229;BME280;37304;52.216;6.874;2023-05-10T08:49:59;100707.13;;;14.49;100.00
51229;BME280;37304;52.216;6.874;2023-05-10T08:55:00;100714.31;;;14.42;100.00
51229;BME280;37304;52.216;6.874;2023-05-10T09:00:01;100722.44;;;14.35;100.00
51229;BME280;37304;52.216;6.874;2023-05-10T09:05:02;100724.88;;;14.39;100.00
51229;BME280;37304;52.216;6.874;2023-05-10T09:10:05;100731.78;;;14.42;100.00
51229;BME280;37304;52.216;6.874;2023-05-10T09:15:07;100735.78;;;14.52;100.00
51229;BME280;37304;52.216;6.874;2023-05-10T09:20:09;100737.72;;;14.73;100.00
51229;BME280;37304;52.216;6.874;2023-05-10T09:25:13;100756.53;;;14.82;100.00
51229;BME280;37304;52.216;6.874;2023-05-10T09:30:23;100754.78;;;14.83;100.00
51229;BME280;37304;52.216;6.874;2023-05-10T09:35:26;100758.78;;;14.93;100.00
51229;BME280;37304;52.216;6.874;2023-05-10T09:40:28;100763.50;;;15.07;100.00
51229;BME280;37304;52.216;6.874;2023-05-10T09:45:31;100762.81;;;15.26;100.00
51229;BME280;37304;52.216;6.874;2023-05-10T09:50:32;100765.34;;;15.51;100.00
51229;BME280;37304;52.216;6.874;2023-05-10T09:55:45;100764.09;;;15.84;100.00
51229;BME280;37304;52.216;6.874;2023-05-10T10:00:46;100766.91;;;16.01;100.00
51229;BME280;37304;52.216;6.874;2023-05-10T10:05:52;100773.44;;;15.91;100.00
51229;BME280;37304;52.216;6.874;2023-05-10T10:10:53;100772.69;;;15.87;100.00
51229;BME280;37304;52.216;6.874;2023-05-10T10:15:54;100777.59;;;15.73;100.00
51229;BME280;37304;52.216;6.874;2023-05-10T10:20:55;100779.31;;;15.74;100.00
51229;BME280;37304;52.216;6.874;2023-05-10T10:25:56;100783.97;;;15.90;100.00
51229;BME280;37304;52.216;6.874;2023-05-10T10:31:02;100779.88;;;16.05;100.00
51229;BME280;37304;52.216;6.874;2023-05-10T10:36:12;100776.59;;;15.99;100.00
51229;BME280;37304;52.216;6.874;2023-05-10T10:41:35;100772.34;;;16.40;100.00
51229;BME280;37304;52.216;6.874;2023-05-10T10:57:21;100770.19;;;16.89;100.00
51229;BME280;37304;52.216;6.874;2023-05-10T11:02:33;100777.47;;;17.24;100.00
51229;BME280;37304;52.216;6.874;2023-05-10T11:07:34;100776.66;;;19.03;100.00
51229;BME280;37304;52.216;6.874;2023-05-10T11:12:58;100785.09;;;19.26;100.00
51229;BME280;37304;52.216;6.874;2023-05-10T11:18:23;100780.44;;;18.28;100.00
51229;BME280;37304;52.216;6.874;2023-05-10T11:23:29;100783.88;;;17.74;100.00
51229;BME280;37304;52.216;6.874;2023-05-10T11:28:30;100784.88;;;17.53;100.00
51229;BME280;37304;52.216;6.874;2023-05-10T11:33:45;100789.53;;;18.21;100.00
51229;BME280;37304;52.216;6.874;2023-05-10T11:38:46;100787.28;;;18.84;100.00
51229;BME280;37304;52.216;6.874;2023-05-10T11:43:49;100781.84;;;19.04;100.00
51229;BME280;37304;52.216;6.874;2023-05-10T11:48:52;100791.22;;;18.92;100.00
51229;BME280;37304;52.216;6.874;2023-05-10T11:53:54;100788.75;;;19.07;100.00
51229;BME280;37304;52.216;6.874;2023-05-10T11:58:56;100797.91;;;18.65;100.00
51229;BME280;37304;52.216;6.874;2023-05-10T12:03:58;100808.69;;;18.42;100.00
51229;BME280;37304;52.216;6.874;2023-05-10T12:09:05;100814.53;;;17.93;100.00
51229;BME280;37304;52.216;6.874;2023-05-10T12:14:05;100821.63;;;17.73;100.00
51229;BME280;37304;52.216;6.874;2023-05-10T12:19:06;100822.16;;;17.80;100.00
51229;BME280;37304;52.216;6.874;2023-05-10T12:24:07;100828.69;;;18.10;100.00
51229;BME280;37304;52.216;6.874;2023-05-10T12:29:19;100825.75;;;18.16;100.00
51229;BME280;37304;52.216;6.874;2023-05-10T12:34:46;100825.94;;;18.48;100.00
51229;BME280;37304;52.216;6.874;2023-05-10T12:39:46;100830.78;;;18.03;100.00
51229;BME280;37304;52.216;6.874;2023-05-10T12:44:47;100833.41;;;17.84;100.00
51229;BME280;37304;52.216;6.874;2023-05-10T12:49:47;100843.06;;;18.02;100.00
51229;BME280;37304;52.216;6.874;2023-05-10T12:54:47;100845.44;;;18.61;100.00
51229;BME280;37304;52.216;6.874;2023-05-10T12:59:49;100842.41;;;18.87;100.00
51229;BME280;37304;52.216;6.874;2023-05-10T13:04:49;100832.38;;;19.29;100.00
51229;BME280;37304;52.216;6.874;2023-05-10T13:09:50;100840.09;;;18.98;100.00
51229;BME280;37304;52.216;6.874;2023-05-10T13:14:50;100839.09;;;19.01;100.00
51229;BME280;37304;52.216;6.874;2023-05-10T13:19:51;100838.34;;;19.48;100.00
51229;BME280;37304;52.216;6.874;2023-05-10T13:24:51;100838.16;;;19.35;100.00
51229;BME280;37304;52.216;6.874;2023-05-10T13:29:52;100839.44;;;19.44;100.00
51229;BME280;37304;52.216;6.874;2023-05-10T13:34:53;100849.75;;;19.15;100.00
51229;BME280;37304;52.216;6.874;2023-05-10T13:39:53;100840.88;;;19.34;100.00
51229;BME280;37304;52.216;6.874;2023-05-10T13:44:53;100843.44;;;19.02;100.00
51229;BME280;37304;52.216;6.874;2023-05-10T13:49:54;100851.75;;;20.40;100.00
51229;BME280;37304;52.216;6.874;2023-05-10T13:54:54;100847.09;;;20.90;100.00
51229;BME280;37304;52.216;6.874;2023-05-10T13:59:55;100842.28;;;20.52;100.00
51229;BME280;37304;52.216;6.874;2023-05-10T14:04:57;100849.22;;;20.22;100.00
51229;BME280;37304;52.216;6.874;2023-05-10T14:10:00;100844.47;;;19.81;100.00
51229;BME280;37304;52.216;6.874;2023-05-10T14:15:01;100838.09;;;19.53;100.00
51229;BME280;37304;52.216;6.874;2023-05-10T14:20:02;100835.09;;;19.43;100.00
51229;BME280;37304;52.216;6.874;2023-05-10T14:25:04;100840.88;;;19.34;100.00
51229;BME280;37304;52.216;6.874;2023-05-10T14:30:05;100840.16;;;19.14;100.00
51229;BME280;37304;52.216;6.874;2023-05-10T14:35:06;100846.22;;;18.63;100.00
51229;BME280;37304;52.216;6.874;2023-05-10T14:40:08;100850.09;;;18.56;100.00
51229;BME280;37304;52.216;6.874;2023-05-10T14:45:10;100849.38;;;18.35;100.00
51229;BME280;37304;52.216;6.874;2023-05-10T14:50:11;100852.03;;;18.70;100.00
51229;BME280;37304;52.216;6.874;2023-05-10T14:55:11;100855.97;;;18.79;100.00
51229;BME280;37304;52.216;6.874;2023-05-10T15:00:12;100853.09;;;19.01;100.00
51229;BME280;37304;52.216;6.874;2023-05-10T15:05:13;100856.34;;;18.36;100.00
51229;BME280;37304;52.216;6.874;2023-05-10T15:10:14;100860.69;;;19.08;100.00
51229;BME280;37304;52.216;6.874;2023-05-10T15:15:14;100859.91;;;19.23;100.00
51229;BME280;37304;52.216;6.874;2023-05-10T15:20:15;100862.06;;;19.48;100.00
51229;BME280;37304;52.216;6.874;2023-05-10T15:25:15;100859.28;;;19.68;100.00
51229;BME280;37304;52.216;6.874;2023-05-10T15:30:16;100864.34;;;19.55;100.00
51229;BME280;37304;52.216;6.874;2023-05-10T15:35:16;100862.91;;;19.49;100.00
51229;BME280;37304;52.216;6.874;2023-05-10T15:40:17;100879.03;;;18.74;100.00
51229;BME280;37304;52.216;6.874;2023-05-10T15:45:17;100883.25;;;19.13;100.00
51229;BME280;37304;52.216;6.874;2023-05-10T15:50:18;100886.44;;;19.36;100.00
51229;BME280;37304;52.216;6.874;2023-05-10T15:55:19;100889.25;;;18.45;100.00
51229;BME280;37304;52.216;6.874;2023-05-10T16:00:19;100892.25;;;18.00;100.00
51229;BME280;37304;52.216;6.874;2023-05-10T16:05:20;100897.56;;;17.80;100.00
51229;BME280;37304;52.216;6.874;2023-05-10T16:10:21;100892.28;;;17.80;100.00
51229;BME280;37304;52.216;6.874;2023-05-10T16:15:21;100901.47;;;17.31;100.00
51229;BME280;37304;52.216;6.874;2023-05-10T16:20:22;100902.00;;;17.18;100.00
51229;BME280;37304;52.216;6.874;2023-05-10T16:25:22;100904.78;;;16.72;100.00
51229;BME280;37304;52.216;6.874;2023-05-10T16:30:22;100906.91;;;16.42;100.00
51229;BME280;37304;52.216;6.874;2023-05-10T16:35:26;100906.34;;;16.34;100.00
51229;BME280;37304;52.216;6.874;2023-05-10T16:40:26;100913.59;;;16.49;100.00
51229;BME280;37304;52.216;6.874;2023-05-10T16:45:26;100914.00;;;16.16;100.00
51229;BME280;37304;52.216;6.874;2023-05-10T16:50:27;100921.97;;;16.37;100.00
51229;BME280;37304;52.216;6.874;2023-05-10T16:55:27;100928.06;;;15.91;100.00
51229;BME280;37304;52.216;6.874;2023-05-10T17:00:28;100931.13;;;16.02;100.00
51229;BME280;37304;52.216;6.874;2023-05-10T17:05:28;100938.28;;;16.21;100.00
51229;BME280;37304;52.216;6.874;2023-05-10T17:10:29;100941.03;;;16.18;100.00
51229;BME280;37304;52.216;6.874;2023-05-10T17:15:29;100933.63;;;16.06;100.00
51229;BME280;37304;52.216;6.874;2023-05-10T17:20:30;100943.19;;;15.83;100.00
51229;BME280;37304;52.216;6.874;2023-05-10T17:25:30;100957.56;;;15.96;100.00
51229;BME280;37304;52.216;6.874;2023-05-10T17:30:30;100947.22;;;15.68;100.00
51229;BME280;37304;52.216;6.874;2023-05-10T17:35:31;100958.28;;;15.76;100.00
51229;BME280;37304;52.216;6.874;2023-05-10T17:40:32;100957.31;;;15.79;100.00
51229;BME280;37304;52.216;6.874;2023-05-10T17:45:32;100955.88;;;15.70;100.00
51229;BME280;37304;52.216;6.874;2023-05-10T17:50:33;100963.97;;;15.64;100.00
51229;BME280;37304;52.216;6.874;2023-05-10T17:55:33;100957.28;;;15.55;100.00
51229;BME280;37304;52.216;6.874;2023-05-10T18:00:34;100962.59;;;15.53;100.00
51229;BME280;37304;52.216;6.874;2023-05-10T18:05:36;100968.09;;;15.46;100.00
51229;BME280;37304;52.216;6.874;2023-05-10T18:10:38;100978.56;;;15.46;100.00
51229;BME280;37304;52.216;6.874;2023-05-10T18:15:41;100972.81;;;15.36;100.00
51229;BME280;37304;52.216;6.874;2023-05-10T18:20:42;100973.06;;;15.28;100.00
51229;BME280;37304;52.216;6.874;2023-05-10T18:25:43;100978.31;;;15.28;100.00
51229;BME280;37304;52.216;6.874;2023-05-10T18:30:43;100985.88;;;15.10;100.00
51229;BME280;37304;52.216;6.874;2023-05-10T18:35:44;100990.00;;;15.18;100.00
51229;BME280;37304;52.216;6.874;2023-05-10T18:40:44;101001.69;;;15.07;100.00
51229;BME280;37304;52.216;6.874;2023-05-10T18:45:44;101005.34;;;15.02;100.00
51229;BME280;37304;52.216;6.874;2023-05-10T18:50:45;101010.66;;;15.00;100.00
51229;BME280;37304;52.216;6.874;2023-05-10T18:55:45;101015.41;;;14.87;100.00
51229;BME280;37304;52.216;6.874;2023-05-10T19:00:46;101016.16;;;14.91;100.00
51229;BME280;37304;52.216;6.874;2023-05-10T19:05:46;101021.94;;;14.74;100.00
51229;BME280;37304;52.216;6.874;2023-05-10T19:10:47;101023.00;;;14.66;100.00
51229;BME280;37304;52.216;6.874;2023-05-10T19:16:02;101017.97;;;14.60;100.00
51229;BME280;37304;52.216;6.874;2023-05-10T19:21:03;101026.84;;;14.54;100.00
51229;BME280;37304;52.216;6.874;2023-05-10T19:26:07;101030.16;;;14.61;100.00
51229;BME280;37304;52.216;6.874;2023-05-10T19:31:08;101031.97;;;14.57;100.00
51229;BME280;37304;52.216;6.874;2023-05-10T19:36:08;101032.34;;;14.45;100.00
51229;BME280;37304;52.216;6.874;2023-05-10T19:41:09;101035.88;;;14.44;100.00
51229;BME280;37304;52.216;6.874;2023-05-10T19:46:12;101050.56;;;14.48;100.00
51229;BME280;37304;52.216;6.874;2023-05-10T19:51:12;101044.63;;;14.43;100.00
51229;BME280;37304;52.216;6.874;2023-05-10T19:56:13;101056.34;;;14.30;100.00
51229;BME280;37304;52.216;6.874;2023-05-10T20:01:13;101060.81;;;14.24;100.00
51229;BME280;37304;52.216;6.874;2023-05-10T20:06:14;101063.63;;;14.18;100.00
51229;BME280;37304;52.216;6.874;2023-05-10T20:11:14;101054.03;;;14.19;100.00
51229;BME280;37304;52.216;6.874;2023-05-10T20:16:15;101061.16;;;14.13;100.00
51229;BME280;37304;52.216;6.874;2023-05-10T20:21:15;101058.78;;;14.04;100.00
51229;BME280;37304;52.216;6.874;2023-05-10T20:26:16;101060.63;;;14.01;100.00
51229;BME280;37304;52.216;6.874;2023-05-10T20:31:16;101056.53;;;13.92;100.00
51229;BME280;37304;52.216;6.874;2023-05-10T20:36:23;101058.25;;;13.91;100.00
51229;BME280;37304;52.216;6.874;2023-05-10T20:41:23;101056.56;;;13.90;100.00
51229;BME280;37304;52.216;6.874;2023-05-10T20:46:25;101055.75;;;13.87;100.00
51229;BME280;37304;52.216;6.874;2023-05-10T20:51:26;101068.09;;;13.81;100.00
51229;BME280;37304;52.216;6.874;2023-05-10T20:56:29;101072.31;;;13.87;100.00
51229;BME280;37304;52.216;6.874;2023-05-10T21:01:30;101080.34;;;13.79;100.00
51229;BME280;37304;52.216;6.874;2023-05-10T21:06:30;101087.25;;;13.82;100.00
51229;BME280;37304;52.216;6.874;2023-05-10T21:11:32;101086.53;;;13.75;100.00
51229;BME280;37304;52.216;6.874;2023-05-10T21:16:34;101081.41;;;13.72;100.00
51229;BME280;37304;52.216;6.874;2023-05-10T21:21:35;101085.72;;;13.73;100.00
51229;BME280;37304;52.216;6.874;2023-05-10T21:26:35;101092.63;;;13.76;100.00
51229;BME280;37304;52.216;6.874;2023-05-10T21:31:36;101099.53;;;13.78;100.00
51229;BME280;37304;52.216;6.874;2023-05-10T21:36:36;101097.78;;;13.79;100.00
51229;BME280;37304;52.216;6.874;2023-05-10T21:41:37;101092.59;;;13.77;100.00
51229;BME280;37304;52.216;6.874;2023-05-10T21:46:37;101093.47;;;13.78;100.00
51229;BME280;37304;52.216;6.874;2023-05-10T21:51:37;101100.31;;;13.82;100.00
51229;BME280;37304;52.216;6.874;2023-05-10T21:56:38;101103.66;;;13.87;100.00
51229;BME280;37304;52.216;6.874;2023-05-10T22:01:38;101099.41;;;13.83;100.00
51229;BME280;37304;52.216;6.874;2023-05-10T22:06:39;101101.97;;;13.84;100.00
51229;BME280;37304;52.216;6.874;2023-05-10T22:11:39;101100.41;;;13.79;100.00
51229;BME280;37304;52.216;6.874;2023-05-10T22:16:39;101112.72;;;13.74;100.00
51229;BME280;37304;52.216;6.874;2023-05-10T22:21:40;101110.94;;;13.74;100.00
51229;BME280;37304;52.216;6.874;2023-05-10T22:26:40;101106.69;;;13.72;100.00
51229;BME280;37304;52.216;6.874;2023-05-10T22:31:41;101109.22;;;13.75;100.00
51229;BME280;37304;52.216;6.874;2023-05-10T22:36:41;101110.06;;;13.75;100.00
51229;BME280;37304;52.216;6.874;2023-05-10T22:41:41;101114.44;;;13.75;100.00
51229;BME280;37304;52.216;6.874;2023-05-10T22:46:42;101113.63;;;13.71;100.00
51229;BME280;37304;52.216;6.874;2023-05-10T22:51:42;101103.28;;;13.68;100.00
51229;BME280;37304;52.216;6.874;2023-05-10T22:56:43;101106.75;;;13.68;100.00
51229;BME280;37304;52.216;6.874;2023-05-10T23:01:43;101108.56;;;13.66;100.00
51229;BME280;37304;52.216;6.874;2023-05-10T23:06:43;101114.59;;;13.68;100.00
51229;BME280;37304;52.216;6.874;2023-05-10T23:11:44;101116.31;;;13.69;100.00
51229;BME280;37304;52.216;6.874;2023-05-10T23:16:45;101107.75;;;13.63;100.00
51229;BME280;37304;52.216;6.874;2023-05-10T23:21:45;101115.56;;;13.64;100.00
51229;BME280;37304;52.216;6.874;2023-05-10T23:26:46;101107.81;;;13.61;100.00
51229;BME280;37304;52.216;6.874;2023-05-10T23:31:49;101111.25;;;13.63;100.00
51229;BME280;37304;52.216;6.874;2023-05-10T23:36:50;101118.19;;;13.64;100.00
51229;BME280;37304;52.216;6.874;2023-05-10T23:41:50;101110.34;;;13.64;100.00
51229;BME280;37304;52.216;6.874;2023-05-10T23:46:51;101110.38;;;13.63;100.00
51229;BME280;37304;52.216;6.874;2023-05-10T23:51:51;101111.38;;;13.57;100.00
51229;BME280;37304;52.216;6.874;2023-05-10T23:56:51;101110.53;;;13.55;100.00
